This is the latest recevied weather packets stored in our database for station/object DJ2KUA-6. If no packets are shown the sender has not sent any weather packets the latest 1 day(s).
| Time | Temp. | Humidity | Pressure | Rain* | Wind** | Luminosity | Snow |
|---|---|---|---|---|---|---|---|
| 1778106056 | 11.11° C | 86% | 1062 hPa | 5.08 mm | - | - | - |
| 1778102636 | 11.67° C | 86% | 1061 hPa | 3.05 mm | - | - | - |
| 1778101496 | 11.67° C | 87% | 1061 hPa | 3.56 mm | - | - | - |
| 1778100356 | 11.67° C | 87% | 1061 hPa | 2.54 mm | - | - | - |
| 1778099214 | 11.67° C | 87% | 1061 hPa | 2.03 mm | - | - | - |
| 1778094654 | 12.78° C | 86% | 1060 hPa | 0 mm | - | - | - |
| 1778093514 | 13.33° C | 85% | 1060 hPa | 0 mm | - | - | - |
| 1778091236 | 13.33° C | 84% | 1060 hPa | 0 mm | - | - | - |
| 1778087814 | 14.44° C | 83% | 1059 hPa | 0.51 mm | - | - | - |
| 1778086675 | 14.44° C | 83% | 1059 hPa | 0.51 mm | - | - | - |
| 1778077555 | 18.33° C | 60% | 1058 hPa | 0 mm | - | - | - |
| 1778074136 | 20.56° C | 55% | 1058 hPa | 0 mm | - | - | - |
| 1778069577 | 21.11° C | 57% | 1058 hPa | 0 mm | - | - | - |
| 1778068434 | 21.11° C | 59% | 1058 hPa | 0 mm | - | - | - |
| 1778067294 | 21.11° C | 61% | 1058 hPa | 0 mm | - | - | - |
| 1778065015 | 18.89° C | 64% | 1059 hPa | 0 mm | - | - | - |
| 1778063876 | 18.89° C | 65% | 1059 hPa | 0 mm | - | - | - |
| 1778061595 | 18.33° C | 67% | 1059 hPa | 0 mm | - | - | - |
| 1778058176 | 20° C | 69% | 1059 hPa | 0.51 mm | - | - | - |
| 1778055895 | 16.67° C | 77% | 1059 hPa | 0.51 mm | - | - | - |
| 1778054756 | 16.11° C | 79% | 1059 hPa | 0 mm | - | - | - |
| 1778053617 | 16.11° C | 81% | 1059 hPa | 0 mm | - | - | - |
| 1778051337 | 15.56° C | 86% | 1059 hPa | 0 mm | - | - | - |
| 1778049056 | 12.78° C | 85% | 1059 hPa | 0 mm | - | - | - |
| 1778046776 | 11.67° C | 86% | 1059 hPa | 0 mm | - | - | - |
* Rain latest hour (hover to see other rain measurements)
** Current wind speed in m/s (hover to see current wind gust speed)